sensor_id;sensor_type;location;lat;lon;timestamp;P1;durP1;ratioP1;P2;durP2;ratioP2
46731;SDS011;32477;51.474;5.696;2023-04-24T00:00:00;19.65;;;10.25;;
46731;SDS011;32477;51.474;5.696;2023-04-24T00:02:28;21.42;;;10.57;;
46731;SDS011;32477;51.474;5.696;2023-04-24T00:04:53;20.00;;;11.93;;
46731;SDS011;32477;51.474;5.696;2023-04-24T00:07:19;17.35;;;11.35;;
46731;SDS011;32477;51.474;5.696;2023-04-24T00:09:45;24.15;;;11.52;;
46731;SDS011;32477;51.474;5.696;2023-04-24T00:12:13;22.23;;;12.38;;
46731;SDS011;32477;51.474;5.696;2023-04-24T00:14:39;18.85;;;11.60;;
46731;SDS011;32477;51.474;5.696;2023-04-24T00:17:05;26.05;;;10.63;;
46731;SDS011;32477;51.474;5.696;2023-04-24T00:19:31;20.58;;;12.07;;
46731;SDS011;32477;51.474;5.696;2023-04-24T00:21:56;29.45;;;13.73;;
46731;SDS011;32477;51.474;5.696;2023-04-24T00:24:22;27.63;;;12.35;;
46731;SDS011;32477;51.474;5.696;2023-04-24T00:26:48;22.30;;;11.80;;
46731;SDS011;32477;51.474;5.696;2023-04-24T00:29:13;32.00;;;12.20;;
46731;SDS011;32477;51.474;5.696;2023-04-24T00:31:48;23.77;;;11.52;;
46731;SDS011;32477;51.474;5.696;2023-04-24T00:34:14;22.63;;;11.93;;
46731;SDS011;32477;51.474;5.696;2023-04-24T00:36:40;21.73;;;12.63;;
46731;SDS011;32477;51.474;5.696;2023-04-24T00:39:05;21.42;;;10.90;;
46731;SDS011;32477;51.474;5.696;2023-04-24T00:41:36;20.67;;;11.05;;
46731;SDS011;32477;51.474;5.696;2023-04-24T00:44:02;20.95;;;11.50;;
46731;SDS011;32477;51.474;5.696;2023-04-24T00:46:28;23.33;;;11.57;;
46731;SDS011;32477;51.474;5.696;2023-04-24T00:48:54;21.20;;;10.82;;
46731;SDS011;32477;51.474;5.696;2023-04-24T00:51:21;22.60;;;12.15;;
46731;SDS011;32477;51.474;5.696;2023-04-24T00:53:49;21.77;;;12.35;;
46731;SDS011;32477;51.474;5.696;2023-04-24T00:56:16;25.60;;;12.05;;
46731;SDS011;32477;51.474;5.696;2023-04-24T00:58:42;26.20;;;12.68;;
46731;SDS011;32477;51.474;5.696;2023-04-24T01:01:08;23.17;;;13.02;;
46731;SDS011;32477;51.474;5.696;2023-04-24T01:03:35;25.45;;;14.23;;
46731;SDS011;32477;51.474;5.696;2023-04-24T01:06:03;27.35;;;13.27;;
46731;SDS011;32477;51.474;5.696;2023-04-24T01:08:30;25.77;;;12.70;;
46731;SDS011;32477;51.474;5.696;2023-04-24T01:10:57;33.88;;;13.88;;
46731;SDS011;32477;51.474;5.696;2023-04-24T01:13:23;29.92;;;15.25;;
46731;SDS011;32477;51.474;5.696;2023-04-24T01:15:48;27.00;;;14.65;;
46731;SDS011;32477;51.474;5.696;2023-04-24T01:18:14;29.35;;;15.82;;
46731;SDS011;32477;51.474;5.696;2023-04-24T01:20:41;30.05;;;14.77;;
46731;SDS011;32477;51.474;5.696;2023-04-24T01:23:09;31.65;;;14.57;;
46731;SDS011;32477;51.474;5.696;2023-04-24T01:25:35;36.38;;;15.32;;
46731;SDS011;32477;51.474;5.696;2023-04-24T01:28:02;30.63;;;14.95;;
46731;SDS011;32477;51.474;5.696;2023-04-24T01:30:29;30.75;;;16.20;;
46731;SDS011;32477;51.474;5.696;2023-04-24T01:32:55;36.50;;;17.00;;
46731;SDS011;32477;51.474;5.696;2023-04-24T01:35:21;32.33;;;16.88;;
46731;SDS011;32477;51.474;5.696;2023-04-24T01:37:46;36.25;;;15.80;;
46731;SDS011;32477;51.474;5.696;2023-04-24T01:40:12;33.03;;;16.40;;
46731;SDS011;32477;51.474;5.696;2023-04-24T01:42:38;31.25;;;17.20;;
46731;SDS011;32477;51.474;5.696;2023-04-24T01:45:07;33.58;;;16.55;;
46731;SDS011;32477;51.474;5.696;2023-04-24T01:47:36;34.58;;;16.77;;
46731;SDS011;32477;51.474;5.696;2023-04-24T01:50:03;29.67;;;16.42;;
46731;SDS011;32477;51.474;5.696;2023-04-24T01:52:29;38.13;;;17.58;;
46731;SDS011;32477;51.474;5.696;2023-04-24T01:54:59;33.30;;;17.25;;
46731;SDS011;32477;51.474;5.696;2023-04-24T01:57:26;38.88;;;18.60;;
46731;SDS011;32477;51.474;5.696;2023-04-24T01:59:52;34.75;;;17.88;;
46731;SDS011;32477;51.474;5.696;2023-04-24T02:02:18;43.40;;;18.38;;
46731;SDS011;32477;51.474;5.696;2023-04-24T02:04:46;41.63;;;18.83;;
46731;SDS011;32477;51.474;5.696;2023-04-24T02:07:11;39.40;;;18.90;;
46731;SDS011;32477;51.474;5.696;2023-04-24T02:09:37;43.13;;;20.08;;
46731;SDS011;32477;51.474;5.696;2023-04-24T02:12:03;38.75;;;18.88;;
46731;SDS011;32477;51.474;5.696;2023-04-24T02:14:28;36.50;;;19.17;;
46731;SDS011;32477;51.474;5.696;2023-04-24T02:16:54;40.92;;;20.15;;
46731;SDS011;32477;51.474;5.696;2023-04-24T02:19:19;39.97;;;19.40;;
46731;SDS011;32477;51.474;5.696;2023-04-24T02:21:45;37.90;;;18.98;;
46731;SDS011;32477;51.474;5.696;2023-04-24T02:24:11;38.58;;;19.45;;
46731;SDS011;32477;51.474;5.696;2023-04-24T02:26:36;41.75;;;19.48;;
46731;SDS011;32477;51.474;5.696;2023-04-24T02:29:02;39.40;;;19.10;;
46731;SDS011;32477;51.474;5.696;2023-04-24T02:31:28;42.88;;;20.08;;
46731;SDS011;32477;51.474;5.696;2023-04-24T02:33:53;35.30;;;18.52;;
46731;SDS011;32477;51.474;5.696;2023-04-24T02:36:19;36.10;;;19.17;;
46731;SDS011;32477;51.474;5.696;2023-04-24T02:38:51;48.00;;;18.50;;
46731;SDS011;32477;51.474;5.696;2023-04-24T02:41:16;30.77;;;17.20;;
46731;SDS011;32477;51.474;5.696;2023-04-24T02:43:42;38.42;;;19.08;;
46731;SDS011;32477;51.474;5.696;2023-04-24T02:46:08;39.33;;;18.65;;
46731;SDS011;32477;51.474;5.696;2023-04-24T02:48:34;33.70;;;17.83;;
46731;SDS011;32477;51.474;5.696;2023-04-24T02:51:00;35.05;;;17.40;;
46731;SDS011;32477;51.474;5.696;2023-04-24T02:53:25;39.75;;;17.40;;
46731;SDS011;32477;51.474;5.696;2023-04-24T02:55:51;35.72;;;17.25;;
46731;SDS011;32477;51.474;5.696;2023-04-24T02:58:17;27.92;;;17.60;;
46731;SDS011;32477;51.474;5.696;2023-04-24T03:00:44;29.35;;;17.20;;
46731;SDS011;32477;51.474;5.696;2023-04-24T03:03:11;33.70;;;17.17;;
46731;SDS011;32477;51.474;5.696;2023-04-24T03:05:37;35.60;;;17.83;;
46731;SDS011;32477;51.474;5.696;2023-04-24T03:08:02;35.00;;;16.23;;
46731;SDS011;32477;51.474;5.696;2023-04-24T03:10:28;28.10;;;16.58;;
46731;SDS011;32477;51.474;5.696;2023-04-24T03:12:54;24.30;;;14.57;;
46731;SDS011;32477;51.474;5.696;2023-04-24T03:15:20;32.10;;;15.45;;
46731;SDS011;32477;51.474;5.696;2023-04-24T03:17:45;28.48;;;15.88;;
46731;SDS011;32477;51.474;5.696;2023-04-24T03:20:11;28.15;;;14.23;;
46731;SDS011;32477;51.474;5.696;2023-04-24T03:22:37;29.35;;;15.57;;
46731;SDS011;32477;51.474;5.696;2023-04-24T03:25:02;34.60;;;14.93;;
46731;SDS011;32477;51.474;5.696;2023-04-24T03:27:29;27.08;;;13.77;;
46731;SDS011;32477;51.474;5.696;2023-04-24T03:29:55;21.83;;;13.35;;
46731;SDS011;32477;51.474;5.696;2023-04-24T03:32:21;22.48;;;13.85;;
46731;SDS011;32477;51.474;5.696;2023-04-24T03:34:48;24.15;;;12.60;;
46731;SDS011;32477;51.474;5.696;2023-04-24T03:37:15;24.58;;;12.68;;
46731;SDS011;32477;51.474;5.696;2023-04-24T03:39:41;22.23;;;12.60;;
46731;SDS011;32477;51.474;5.696;2023-04-24T03:42:07;24.52;;;14.15;;
46731;SDS011;32477;51.474;5.696;2023-04-24T03:44:33;23.23;;;13.00;;
46731;SDS011;32477;51.474;5.696;2023-04-24T03:47:00;24.80;;;12.45;;
46731;SDS011;32477;51.474;5.696;2023-04-24T03:49:31;22.83;;;14.07;;
46731;SDS011;32477;51.474;5.696;2023-04-24T03:51:57;24.15;;;13.15;;
46731;SDS011;32477;51.474;5.696;2023-04-24T03:54:22;29.02;;;14.02;;
46731;SDS011;32477;51.474;5.696;2023-04-24T03:56:48;20.08;;;12.70;;
46731;SDS011;32477;51.474;5.696;2023-04-24T03:59:14;23.90;;;12.20;;
46731;SDS011;32477;51.474;5.696;2023-04-24T04:01:39;22.92;;;12.63;;
46731;SDS011;32477;51.474;5.696;2023-04-24T04:04:05;24.75;;;12.82;;
46731;SDS011;32477;51.474;5.696;2023-04-24T04:06:32;27.15;;;12.25;;
46731;SDS011;32477;51.474;5.696;2023-04-24T04:08:58;21.77;;;12.13;;
46731;SDS011;32477;51.474;5.696;2023-04-24T04:11:24;23.45;;;12.38;;
46731;SDS011;32477;51.474;5.696;2023-04-24T04:13:50;22.63;;;12.02;;
46731;SDS011;32477;51.474;5.696;2023-04-24T04:16:16;19.17;;;10.73;;
46731;SDS011;32477;51.474;5.696;2023-04-24T04:18:45;23.13;;;11.63;;
46731;SDS011;32477;51.474;5.696;2023-04-24T04:21:11;25.10;;;11.60;;
46731;SDS011;32477;51.474;5.696;2023-04-24T04:23:36;26.15;;;11.82;;
46731;SDS011;32477;51.474;5.696;2023-04-24T04:26:03;21.33;;;11.57;;
46731;SDS011;32477;51.474;5.696;2023-04-24T04:28:29;22.30;;;10.48;;
46731;SDS011;32477;51.474;5.696;2023-04-24T04:30:57;15.63;;;10.02;;
46731;SDS011;32477;51.474;5.696;2023-04-24T04:33:23;19.55;;;10.77;;
46731;SDS011;32477;51.474;5.696;2023-04-24T04:35:50;22.08;;;12.02;;
46731;SDS011;32477;51.474;5.696;2023-04-24T04:38:21;20.23;;;11.20;;
46731;SDS011;32477;51.474;5.696;2023-04-24T04:40:55;23.40;;;11.45;;
46731;SDS011;32477;51.474;5.696;2023-04-24T04:43:23;19.05;;;10.93;;
46731;SDS011;32477;51.474;5.696;2023-04-24T04:45:49;26.00;;;11.05;;
46731;SDS011;32477;51.474;5.696;2023-04-24T04:48:16;19.55;;;10.88;;
46731;SDS011;32477;51.474;5.696;2023-04-24T04:50:42;22.73;;;11.02;;
46731;SDS011;32477;51.474;5.696;2023-04-24T04:53:10;18.35;;;11.48;;
46731;SDS011;32477;51.474;5.696;2023-04-24T04:55:36;21.90;;;10.73;;
46731;SDS011;32477;51.474;5.696;2023-04-24T04:58:02;20.17;;;11.13;;
46731;SDS011;32477;51.474;5.696;2023-04-24T05:00:28;18.73;;;10.80;;
46731;SDS011;32477;51.474;5.696;2023-04-24T05:02:58;20.20;;;11.18;;
46731;SDS011;32477;51.474;5.696;2023-04-24T05:05:24;24.05;;;11.27;;
46731;SDS011;32477;51.474;5.696;2023-04-24T05:07:50;23.17;;;11.50;;
46731;SDS011;32477;51.474;5.696;2023-04-24T05:10:16;17.08;;;9.65;;
46731;SDS011;32477;51.474;5.696;2023-04-24T05:12:41;20.15;;;10.98;;
46731;SDS011;32477;51.474;5.696;2023-04-24T05:15:07;21.02;;;10.30;;
46731;SDS011;32477;51.474;5.696;2023-04-24T05:17:33;20.75;;;10.40;;
46731;SDS011;32477;51.474;5.696;2023-04-24T05:19:59;19.08;;;10.85;;
46731;SDS011;32477;51.474;5.696;2023-04-24T05:22:25;17.55;;;9.18;;
46731;SDS011;32477;51.474;5.696;2023-04-24T05:24:51;17.88;;;10.52;;
46731;SDS011;32477;51.474;5.696;2023-04-24T05:27:17;19.67;;;10.43;;
46731;SDS011;32477;51.474;5.696;2023-04-24T05:29:42;17.90;;;9.88;;
46731;SDS011;32477;51.474;5.696;2023-04-24T05:32:08;17.23;;;9.32;;
46731;SDS011;32477;51.474;5.696;2023-04-24T05:34:34;16.50;;;9.48;;
46731;SDS011;32477;51.474;5.696;2023-04-24T05:37:00;16.65;;;9.35;;
46731;SDS011;32477;51.474;5.696;2023-04-24T05:39:25;13.85;;;8.10;;
46731;SDS011;32477;51.474;5.696;2023-04-24T05:41:51;11.85;;;8.30;;
46731;SDS011;32477;51.474;5.696;2023-04-24T05:44:17;12.45;;;6.97;;
46731;SDS011;32477;51.474;5.696;2023-04-24T05:46:42;10.77;;;5.68;;
46731;SDS011;32477;51.474;5.696;2023-04-24T05:49:08;8.10;;;5.28;;
46731;SDS011;32477;51.474;5.696;2023-04-24T05:51:34;7.63;;;5.07;;
46731;SDS011;32477;51.474;5.696;2023-04-24T05:54:00;6.43;;;4.60;;
46731;SDS011;32477;51.474;5.696;2023-04-24T05:56:26;10.05;;;4.03;;
46731;SDS011;32477;51.474;5.696;2023-04-24T05:58:52;9.18;;;4.05;;
46731;SDS011;32477;51.474;5.696;2023-04-24T06:01:18;5.70;;;3.05;;
46731;SDS011;32477;51.474;5.696;2023-04-24T06:03:44;3.97;;;2.85;;
46731;SDS011;32477;51.474;5.696;2023-04-24T06:06:10;5.28;;;3.35;;
46731;SDS011;32477;51.474;5.696;2023-04-24T06:08:35;6.38;;;3.45;;
46731;SDS011;32477;51.474;5.696;2023-04-24T06:11:01;5.50;;;2.65;;
46731;SDS011;32477;51.474;5.696;2023-04-24T06:13:27;6.20;;;2.97;;
46731;SDS011;32477;51.474;5.696;2023-04-24T06:15:53;3.95;;;2.00;;
46731;SDS011;32477;51.474;5.696;2023-04-24T06:18:18;4.05;;;2.08;;
46731;SDS011;32477;51.474;5.696;2023-04-24T06:20:45;3.92;;;1.98;;
46731;SDS011;32477;51.474;5.696;2023-04-24T06:23:11;5.45;;;2.10;;
46731;SDS011;32477;51.474;5.696;2023-04-24T06:25:37;4.60;;;2.20;;
46731;SDS011;32477;51.474;5.696;2023-04-24T06:28:03;3.00;;;2.00;;
46731;SDS011;32477;51.474;5.696;2023-04-24T06:30:28;4.80;;;1.77;;
46731;SDS011;32477;51.474;5.696;2023-04-24T06:32:54;2.65;;;1.55;;
46731;SDS011;32477;51.474;5.696;2023-04-24T06:35:20;2.75;;;1.45;;
46731;SDS011;32477;51.474;5.696;2023-04-24T06:37:46;5.72;;;2.15;;
46731;SDS011;32477;51.474;5.696;2023-04-24T06:40:11;4.40;;;2.22;;
46731;SDS011;32477;51.474;5.696;2023-04-24T06:42:37;3.33;;;2.50;;
46731;SDS011;32477;51.474;5.696;2023-04-24T06:45:03;5.15;;;2.65;;
46731;SDS011;32477;51.474;5.696;2023-04-24T06:47:30;3.35;;;2.30;;
46731;SDS011;32477;51.474;5.696;2023-04-24T06:49:55;3.80;;;2.40;;
46731;SDS011;32477;51.474;5.696;2023-04-24T06:52:22;5.15;;;2.50;;
46731;SDS011;32477;51.474;5.696;2023-04-24T06:54:47;3.63;;;2.33;;
46731;SDS011;32477;51.474;5.696;2023-04-24T06:57:13;3.53;;;1.75;;
46731;SDS011;32477;51.474;5.696;2023-04-24T06:59:40;4.00;;;1.77;;
46731;SDS011;32477;51.474;5.696;2023-04-24T07:02:06;4.93;;;2.67;;
46731;SDS011;32477;51.474;5.696;2023-04-24T07:04:32;4.40;;;3.05;;
46731;SDS011;32477;51.474;5.696;2023-04-24T07:06:57;6.50;;;3.15;;
46731;SDS011;32477;51.474;5.696;2023-04-24T07:09:24;6.97;;;3.13;;
46731;SDS011;32477;51.474;5.696;2023-04-24T07:11:50;6.03;;;3.90;;
46731;SDS011;32477;51.474;5.696;2023-04-24T07:14:16;7.80;;;4.72;;
46731;SDS011;32477;51.474;5.696;2023-04-24T07:16:42;13.43;;;8.20;;
46731;SDS011;32477;51.474;5.696;2023-04-24T07:19:08;20.63;;;8.95;;
46731;SDS011;32477;51.474;5.696;2023-04-24T07:21:34;18.48;;;9.10;;
46731;SDS011;32477;51.474;5.696;2023-04-24T07:24:00;16.70;;;9.15;;
46731;SDS011;32477;51.474;5.696;2023-04-24T07:26:28;18.75;;;9.65;;
46731;SDS011;32477;51.474;5.696;2023-04-24T07:28:55;17.17;;;9.75;;
46731;SDS011;32477;51.474;5.696;2023-04-24T07:31:21;17.88;;;9.95;;
46731;SDS011;32477;51.474;5.696;2023-04-24T07:33:46;19.05;;;10.07;;
46731;SDS011;32477;51.474;5.696;2023-04-24T07:36:12;20.45;;;11.48;;
46731;SDS011;32477;51.474;5.696;2023-04-24T07:38:42;25.73;;;11.85;;
46731;SDS011;32477;51.474;5.696;2023-04-24T07:41:08;25.20;;;10.60;;
46731;SDS011;32477;51.474;5.696;2023-04-24T07:43:34;23.05;;;11.25;;
46731;SDS011;32477;51.474;5.696;2023-04-24T07:46:00;23.42;;;10.43;;
46731;SDS011;32477;51.474;5.696;2023-04-24T07:48:25;21.90;;;12.40;;
46731;SDS011;32477;51.474;5.696;2023-04-24T07:50:51;21.88;;;10.50;;
46731;SDS011;32477;51.474;5.696;2023-04-24T07:53:17;19.88;;;10.13;;
46731;SDS011;32477;51.474;5.696;2023-04-24T07:55:43;21.98;;;10.30;;
46731;SDS011;32477;51.474;5.696;2023-04-24T07:58:09;25.38;;;9.80;;
46731;SDS011;32477;51.474;5.696;2023-04-24T08:00:34;22.58;;;10.60;;
46731;SDS011;32477;51.474;5.696;2023-04-24T08:03:00;16.13;;;9.27;;
46731;SDS011;32477;51.474;5.696;2023-04-24T08:05:26;21.42;;;9.52;;
46731;SDS011;32477;51.474;5.696;2023-04-24T08:07:53;18.65;;;8.30;;
46731;SDS011;32477;51.474;5.696;2023-04-24T08:10:20;24.05;;;7.70;;
46731;SDS011;32477;51.474;5.696;2023-04-24T08:12:48;24.55;;;7.43;;
46731;SDS011;32477;51.474;5.696;2023-04-24T08:15:14;15.63;;;7.47;;
46731;SDS011;32477;51.474;5.696;2023-04-24T08:17:40;18.80;;;7.82;;
46731;SDS011;32477;51.474;5.696;2023-04-24T08:20:06;23.38;;;7.32;;
46731;SDS011;32477;51.474;5.696;2023-04-24T08:22:38;19.63;;;7.78;;
46731;SDS011;32477;51.474;5.696;2023-04-24T08:25:05;22.33;;;7.68;;
46731;SDS011;32477;51.474;5.696;2023-04-24T08:27:31;22.30;;;7.15;;
46731;SDS011;32477;51.474;5.696;2023-04-24T08:29:57;20.63;;;7.38;;
46731;SDS011;32477;51.474;5.696;2023-04-24T08:32:24;25.77;;;7.88;;
46731;SDS011;32477;51.474;5.696;2023-04-24T08:34:53;25.83;;;7.63;;
46731;SDS011;32477;51.474;5.696;2023-04-24T08:37:21;25.05;;;7.90;;
46731;SDS011;32477;51.474;5.696;2023-04-24T08:39:47;29.30;;;8.20;;
46731;SDS011;32477;51.474;5.696;2023-04-24T08:42:13;15.73;;;6.75;;
46731;SDS011;32477;51.474;5.696;2023-04-24T08:44:40;23.50;;;7.50;;
46731;SDS011;32477;51.474;5.696;2023-04-24T08:47:06;16.27;;;7.15;;
46731;SDS011;32477;51.474;5.696;2023-04-24T08:49:33;23.38;;;8.07;;
46731;SDS011;32477;51.474;5.696;2023-04-24T08:52:01;24.65;;;10.98;;
46731;SDS011;32477;51.474;5.696;2023-04-24T08:54:27;29.45;;;8.98;;
46731;SDS011;32477;51.474;5.696;2023-04-24T08:56:54;23.52;;;8.43;;
46731;SDS011;32477;51.474;5.696;2023-04-24T08:59:27;27.00;;;7.63;;
46731;SDS011;32477;51.474;5.696;2023-04-24T09:01:53;26.73;;;9.10;;
46731;SDS011;32477;51.474;5.696;2023-04-24T09:04:20;15.90;;;8.13;;
46731;SDS011;32477;51.474;5.696;2023-04-24T09:06:49;27.25;;;10.88;;
46731;SDS011;32477;51.474;5.696;2023-04-24T09:09:24;27.65;;;8.30;;
46731;SDS011;32477;51.474;5.696;2023-04-24T09:11:51;21.13;;;6.57;;
46731;SDS011;32477;51.474;5.696;2023-04-24T09:14:18;26.80;;;6.57;;
46731;SDS011;32477;51.474;5.696;2023-04-24T09:16:45;20.65;;;6.88;;
46731;SDS011;32477;51.474;5.696;2023-04-24T09:19:12;26.52;;;6.25;;
46731;SDS011;32477;51.474;5.696;2023-04-24T09:21:37;29.13;;;6.03;;
46731;SDS011;32477;51.474;5.696;2023-04-24T09:24:04;14.40;;;4.70;;
46731;SDS011;32477;51.474;5.696;2023-04-24T09:26:33;18.60;;;4.85;;
46731;SDS011;32477;51.474;5.696;2023-04-24T09:29:01;27.50;;;5.43;;
46731;SDS011;32477;51.474;5.696;2023-04-24T09:31:28;19.73;;;5.30;;
46731;SDS011;32477;51.474;5.696;2023-04-24T09:33:58;23.45;;;4.88;;
46731;SDS011;32477;51.474;5.696;2023-04-24T09:36:32;19.15;;;5.53;;
46731;SDS011;32477;51.474;5.696;2023-04-24T09:39:02;18.58;;;5.72;;
46731;SDS011;32477;51.474;5.696;2023-04-24T09:41:31;19.13;;;4.47;;
46731;SDS011;32477;51.474;5.696;2023-04-24T09:43:58;17.67;;;4.32;;
46731;SDS011;32477;51.474;5.696;2023-04-24T09:46:36;20.38;;;5.32;;
46731;SDS011;32477;51.474;5.696;2023-04-24T09:49:08;18.00;;;4.30;;
46731;SDS011;32477;51.474;5.696;2023-04-24T09:51:36;15.52;;;4.65;;
46731;SDS011;32477;51.474;5.696;2023-04-24T09:54:24;21.88;;;5.22;;
46731;SDS011;32477;51.474;5.696;2023-04-24T09:56:50;20.27;;;4.60;;
46731;SDS011;32477;51.474;5.696;2023-04-24T09:59:17;22.80;;;5.07;;
46731;SDS011;32477;51.474;5.696;2023-04-24T10:01:44;18.15;;;4.53;;
46731;SDS011;32477;51.474;5.696;2023-04-24T10:04:20;13.55;;;4.05;;
46731;SDS011;32477;51.474;5.696;2023-04-24T10:06:48;15.35;;;4.18;;
46731;SDS011;32477;51.474;5.696;2023-04-24T10:09:16;11.07;;;3.35;;
46731;SDS011;32477;51.474;5.696;2023-04-24T10:11:43;7.15;;;3.17;;
46731;SDS011;32477;51.474;5.696;2023-04-24T10:14:14;12.27;;;2.78;;
46731;SDS011;32477;51.474;5.696;2023-04-24T10:16:41;10.98;;;2.80;;
46731;SDS011;32477;51.474;5.696;2023-04-24T10:19:08;12.73;;;2.58;;
46731;SDS011;32477;51.474;5.696;2023-04-24T10:21:34;9.10;;;2.13;;
46731;SDS011;32477;51.474;5.696;2023-04-24T10:24:04;11.98;;;2.05;;
46731;SDS011;32477;51.474;5.696;2023-04-24T10:26:32;11.90;;;2.30;;
46731;SDS011;32477;51.474;5.696;2023-04-24T10:28:59;7.22;;;2.38;;
46731;SDS011;32477;51.474;5.696;2023-04-24T10:31:25;9.18;;;1.58;;
46731;SDS011;32477;51.474;5.696;2023-04-24T10:33:52;5.45;;;2.13;;
46731;SDS011;32477;51.474;5.696;2023-04-24T10:36:19;11.65;;;2.72;;
46731;SDS011;32477;51.474;5.696;2023-04-24T10:38:48;14.95;;;2.45;;
46731;SDS011;32477;51.474;5.696;2023-04-24T10:41:15;12.70;;;2.58;;
46731;SDS011;32477;51.474;5.696;2023-04-24T10:43:48;11.45;;;1.95;;
46731;SDS011;32477;51.474;5.696;2023-04-24T10:46:30;7.50;;;1.88;;
46731;SDS011;32477;51.474;5.696;2023-04-24T10:48:56;7.45;;;1.77;;
46731;SDS011;32477;51.474;5.696;2023-04-24T10:51:23;10.63;;;2.20;;
46731;SDS011;32477;51.474;5.696;2023-04-24T10:53:50;14.02;;;2.35;;
46731;SDS011;32477;51.474;5.696;2023-04-24T10:56:16;5.45;;;1.70;;
46731;SDS011;32477;51.474;5.696;2023-04-24T10:58:49;6.68;;;1.48;;
46731;SDS011;32477;51.474;5.696;2023-04-24T11:01:30;7.95;;;1.80;;
46731;SDS011;32477;51.474;5.696;2023-04-24T11:03:58;4.18;;;0.90;;
46731;SDS011;32477;51.474;5.696;2023-04-24T11:09:08;7.63;;;1.30;;
46731;SDS011;32477;51.474;5.696;2023-04-24T11:11:37;3.67;;;0.95;;
46731;SDS011;32477;51.474;5.696;2023-04-24T11:14:09;3.83;;;1.00;;
46731;SDS011;32477;51.474;5.696;2023-04-24T11:16:37;5.53;;;1.75;;
46731;SDS011;32477;51.474;5.696;2023-04-24T11:19:27;2.55;;;0.68;;
46731;SDS011;32477;51.474;5.696;2023-04-24T11:21:54;3.42;;;1.23;;
46731;SDS011;32477;51.474;5.696;2023-04-24T11:26:51;7.70;;;1.30;;
46731;SDS011;32477;51.474;5.696;2023-04-24T11:29:21;6.72;;;1.50;;
46731;SDS011;32477;51.474;5.696;2023-04-24T11:31:47;7.05;;;1.38;;
46731;SDS011;32477;51.474;5.696;2023-04-24T11:34:16;9.43;;;1.25;;
46731;SDS011;32477;51.474;5.696;2023-04-24T11:36:43;6.35;;;1.05;;
46731;SDS011;32477;51.474;5.696;2023-04-24T11:39:10;4.10;;;1.40;;
46731;SDS011;32477;51.474;5.696;2023-04-24T11:41:36;5.65;;;1.27;;
46731;SDS011;32477;51.474;5.696;2023-04-24T11:44:03;9.50;;;2.10;;
46731;SDS011;32477;51.474;5.696;2023-04-24T11:46:31;3.00;;;1.15;;
46731;SDS011;32477;51.474;5.696;2023-04-24T11:48:57;6.80;;;1.30;;
46731;SDS011;32477;51.474;5.696;2023-04-24T11:51:24;5.20;;;1.42;;
46731;SDS011;32477;51.474;5.696;2023-04-24T11:53:51;7.90;;;1.58;;
46731;SDS011;32477;51.474;5.696;2023-04-24T11:56:19;4.43;;;1.13;;
46731;SDS011;32477;51.474;5.696;2023-04-24T11:58:47;4.57;;;1.42;;
46731;SDS011;32477;51.474;5.696;2023-04-24T12:01:13;9.18;;;1.65;;
46731;SDS011;32477;51.474;5.696;2023-04-24T12:03:39;8.95;;;3.53;;
46731;SDS011;32477;51.474;5.696;2023-04-24T12:06:08;5.00;;;1.30;;
46731;SDS011;32477;51.474;5.696;2023-04-24T12:08:36;5.43;;;1.63;;
46731;SDS011;32477;51.474;5.696;2023-04-24T12:11:03;3.72;;;1.00;;
46731;SDS011;32477;51.474;5.696;2023-04-24T12:13:31;3.25;;;1.30;;
46731;SDS011;32477;51.474;5.696;2023-04-24T12:15:58;6.65;;;1.15;;
46731;SDS011;32477;51.474;5.696;2023-04-24T12:18:23;11.75;;;1.40;;
46731;SDS011;32477;51.474;5.696;2023-04-24T12:20:49;5.45;;;1.17;;
46731;SDS011;32477;51.474;5.696;2023-04-24T12:23:15;3.05;;;0.82;;
46731;SDS011;32477;51.474;5.696;2023-04-24T12:25:42;6.18;;;1.27;;
46731;SDS011;32477;51.474;5.696;2023-04-24T12:28:09;3.90;;;1.25;;
46731;SDS011;32477;51.474;5.696;2023-04-24T12:30:47;7.63;;;1.35;;
46731;SDS011;32477;51.474;5.696;2023-04-24T12:33:19;5.28;;;1.13;;
46731;SDS011;32477;51.474;5.696;2023-04-24T12:35:46;5.18;;;1.48;;
46731;SDS011;32477;51.474;5.696;2023-04-24T12:38:13;3.63;;;1.10;;
46731;SDS011;32477;51.474;5.696;2023-04-24T12:40:43;5.50;;;1.38;;
46731;SDS011;32477;51.474;5.696;2023-04-24T12:43:12;5.13;;;1.30;;
46731;SDS011;32477;51.474;5.696;2023-04-24T12:45:42;3.03;;;1.47;;
46731;SDS011;32477;51.474;5.696;2023-04-24T12:48:09;2.70;;;1.00;;
46731;SDS011;32477;51.474;5.696;2023-04-24T12:50:34;3.67;;;1.00;;
46731;SDS011;32477;51.474;5.696;2023-04-24T12:53:00;6.47;;;1.25;;
46731;SDS011;32477;51.474;5.696;2023-04-24T12:55:26;1.75;;;0.85;;
46731;SDS011;32477;51.474;5.696;2023-04-24T12:57:51;4.57;;;0.85;;
46731;SDS011;32477;51.474;5.696;2023-04-24T13:00:20;2.72;;;0.88;;
46731;SDS011;32477;51.474;5.696;2023-04-24T13:02:46;4.57;;;1.33;;
46731;SDS011;32477;51.474;5.696;2023-04-24T13:05:11;2.67;;;0.77;;
46731;SDS011;32477;51.474;5.696;2023-04-24T13:07:38;4.32;;;1.63;;
46731;SDS011;32477;51.474;5.696;2023-04-24T13:10:04;2.75;;;0.80;;
46731;SDS011;32477;51.474;5.696;2023-04-24T13:12:31;1.85;;;0.90;;
46731;SDS011;32477;51.474;5.696;2023-04-24T13:14:57;2.67;;;0.80;;
46731;SDS011;32477;51.474;5.696;2023-04-24T13:17:23;2.75;;;1.10;;
46731;SDS011;32477;51.474;5.696;2023-04-24T13:19:50;6.32;;;1.20;;
46731;SDS011;32477;51.474;5.696;2023-04-24T13:22:16;4.35;;;1.10;;
46731;SDS011;32477;51.474;5.696;2023-04-24T13:24:43;5.57;;;1.25;;
46731;SDS011;32477;51.474;5.696;2023-04-24T13:27:09;2.72;;;0.90;;
46731;SDS011;32477;51.474;5.696;2023-04-24T13:29:36;5.43;;;1.30;;
46731;SDS011;32477;51.474;5.696;2023-04-24T13:32:02;2.33;;;0.93;;
46731;SDS011;32477;51.474;5.696;2023-04-24T13:34:28;3.42;;;0.80;;
46731;SDS011;32477;51.474;5.696;2023-04-24T13:36:54;1.95;;;1.00;;
46731;SDS011;32477;51.474;5.696;2023-04-24T13:39:21;3.42;;;1.17;;
46731;SDS011;32477;51.474;5.696;2023-04-24T13:41:48;2.58;;;0.90;;
46731;SDS011;32477;51.474;5.696;2023-04-24T13:44:14;6.60;;;1.15;;
46731;SDS011;32477;51.474;5.696;2023-04-24T13:46:41;3.28;;;1.27;;
46731;SDS011;32477;51.474;5.696;2023-04-24T13:49:09;7.47;;;1.30;;
46731;SDS011;32477;51.474;5.696;2023-04-24T13:51:35;4.38;;;0.90;;
46731;SDS011;32477;51.474;5.696;2023-04-24T13:54:01;2.60;;;1.30;;
46731;SDS011;32477;51.474;5.696;2023-04-24T13:56:26;3.13;;;0.93;;
46731;SDS011;32477;51.474;5.696;2023-04-24T13:58:52;11.02;;;1.40;;
46731;SDS011;32477;51.474;5.696;2023-04-24T14:01:19;4.20;;;1.20;;
46731;SDS011;32477;51.474;5.696;2023-04-24T14:03:49;4.38;;;1.42;;
46731;SDS011;32477;51.474;5.696;2023-04-24T14:06:15;3.58;;;1.23;;
46731;SDS011;32477;51.474;5.696;2023-04-24T14:08:41;4.97;;;1.40;;
46731;SDS011;32477;51.474;5.696;2023-04-24T14:11:06;1.15;;;1.00;;
46731;SDS011;32477;51.474;5.696;2023-04-24T14:13:32;6.22;;;1.40;;
46731;SDS011;32477;51.474;5.696;2023-04-24T14:15:58;8.02;;;1.40;;
46731;SDS011;32477;51.474;5.696;2023-04-24T14:18:23;5.75;;;1.35;;
46731;SDS011;32477;51.474;5.696;2023-04-24T14:20:49;6.38;;;1.60;;
46731;SDS011;32477;51.474;5.696;2023-04-24T14:23:15;5.93;;;1.55;;
46731;SDS011;32477;51.474;5.696;2023-04-24T14:25:41;4.03;;;1.52;;
46731;SDS011;32477;51.474;5.696;2023-04-24T14:28:06;4.15;;;1.25;;
46731;SDS011;32477;51.474;5.696;2023-04-24T14:30:32;2.72;;;1.35;;
46731;SDS011;32477;51.474;5.696;2023-04-24T14:32:58;4.70;;;1.90;;
46731;SDS011;32477;51.474;5.696;2023-04-24T14:35:23;8.18;;;1.65;;